createdAt,value
2023-03-24T00:01:54.734Z,7.49
2023-03-24T00:06:58.098Z,7.44
2023-03-24T00:12:00.786Z,7.40
2023-03-24T00:17:03.564Z,7.29
2023-03-24T00:22:08.325Z,7.45
2023-03-24T00:27:13.838Z,7.51
2023-03-24T00:32:17.711Z,7.56
2023-03-24T00:37:20.476Z,7.52
2023-03-24T00:42:24.801Z,7.55
2023-03-24T00:47:27.434Z,7.61
2023-03-24T00:52:34.214Z,7.68
2023-03-24T00:57:37.212Z,7.77
2023-03-24T01:02:40.427Z,7.81
2023-03-24T01:07:43.501Z,7.80
2023-03-24T01:12:46.239Z,7.80
2023-03-24T01:17:49.439Z,8.01
2023-03-24T01:22:52.612Z,8.01
2023-03-24T01:27:55.413Z,8.05
2023-03-24T01:32:58.281Z,7.92
2023-03-24T01:38:01.193Z,8.06
2023-03-24T01:43:05.108Z,7.84
2023-03-24T01:48:27.183Z,7.78
2023-03-24T01:53:34.263Z,7.81
2023-03-24T01:58:41.262Z,7.71
2023-03-24T02:03:53.070Z,7.80
2023-03-24T02:09:01.593Z,7.87
2023-03-24T02:14:07.282Z,7.91
2023-03-24T02:19:48.162Z,8.01
2023-03-24T02:25:37.102Z,8.07
2023-03-24T02:30:49.539Z,8.20
2023-03-24T02:36:32.358Z,8.09
2023-03-24T02:41:55.388Z,7.96
2023-03-24T02:46:57.803Z,7.94
2023-03-24T02:52:18.857Z,7.93
2023-03-24T02:57:47.365Z,8.00
2023-03-24T03:03:34.820Z,7.94
2023-03-24T03:08:39.138Z,8.10
2023-03-24T03:14:03.047Z,8.12
2023-03-24T03:19:12.820Z,7.89
2023-03-24T03:24:27.019Z,8.13
2023-03-24T03:29:37.076Z,8.18
2023-03-24T03:34:48.676Z,8.16
2023-03-24T03:40:09.962Z,7.95
2023-03-24T03:45:16.286Z,7.82
2023-03-24T03:50:19.356Z,7.72
2023-03-24T03:55:22.513Z,7.69
2023-03-24T04:00:26.298Z,7.64
2023-03-24T04:06:02.054Z,7.62
2023-03-24T04:11:39.211Z,7.37
2023-03-24T04:17:43.885Z,7.42
2023-03-24T04:23:14.718Z,7.47
2023-03-24T04:28:33.258Z,7.44
2023-03-24T04:33:41.833Z,7.41
2023-03-24T04:38:53.418Z,7.39
2023-03-24T04:44:11.229Z,7.22
2023-03-24T04:49:27.432Z,7.34
2023-03-24T04:54:30.224Z,7.24
2023-03-24T04:59:40.735Z,7.11
2023-03-24T05:04:44.140Z,7.06
2023-03-24T05:10:12.865Z,7.08
2023-03-24T05:15:23.742Z,7.09
2023-03-24T05:20:32.500Z,7.16
2023-03-24T05:25:47.156Z,7.14
2023-03-24T05:30:51.712Z,7.34
2023-03-24T05:36:13.068Z,7.27
2023-03-24T05:41:17.485Z,7.32
2023-03-24T05:46:20.634Z,7.37
2023-03-24T05:51:24.952Z,7.28
2023-03-24T05:56:36.968Z,7.44
2023-03-24T06:01:53.819Z,7.41
2023-03-24T06:07:03.158Z,7.55
2023-03-24T06:12:09.999Z,7.51
2023-03-24T06:17:16.404Z,7.47
2023-03-24T06:22:21.735Z,7.57
2023-03-24T06:27:26.340Z,7.57
2023-03-24T06:32:29.963Z,7.62
2023-03-24T06:37:33.368Z,7.89
2023-03-24T06:42:37.937Z,7.77
2023-03-24T06:47:41.162Z,7.80
2023-03-24T06:52:44.063Z,7.84
2023-03-24T06:57:48.978Z,7.94
2023-03-24T07:03:04.009Z,7.71
2023-03-24T07:08:34.098Z,7.64
2023-03-24T07:13:34.539Z,7.62
2023-03-24T07:18:40.284Z,7.57
2023-03-24T07:23:43.406Z,7.31
2023-03-24T07:28:51.718Z,7.26
2023-03-24T07:34:06.597Z,7.51
2023-03-24T07:39:13.303Z,7.59
2023-03-24T07:44:16.305Z,7.54
2023-03-24T07:49:26.374Z,7.49
2023-03-24T07:54:40.905Z,7.25
2023-03-24T07:59:44.514Z,7.31
2023-03-24T08:04:54.198Z,7.26
2023-03-24T08:10:24.183Z,7.48
2023-03-24T08:15:28.420Z,7.54
2023-03-24T08:20:31.108Z,7.72
2023-03-24T08:25:36.422Z,7.75
2023-03-24T08:30:43.704Z,7.78
2023-03-24T08:35:47.189Z,7.73
2023-03-24T08:40:50.294Z,8.06
2023-03-24T08:45:53.074Z,8.13
2023-03-24T08:50:56.799Z,8.21
2023-03-24T08:55:59.522Z,8.19
2023-03-24T09:01:02.391Z,8.15
2023-03-24T09:06:05.270Z,8.26
2023-03-24T09:11:13.982Z,7.99
2023-03-24T09:16:23.504Z,8.18
2023-03-24T09:21:26.515Z,8.24
2023-03-24T09:26:29.164Z,8.20
2023-03-24T09:31:31.874Z,8.54
2023-03-24T09:36:34.463Z,8.54
2023-03-24T09:41:37.231Z,8.32
2023-03-24T09:46:54.736Z,8.22
2023-03-24T09:52:05.832Z,8.18
2023-03-24T09:57:27.523Z,8.06
2023-03-24T10:02:31.786Z,8.06
2023-03-24T10:07:43.311Z,8.22
2023-03-24T10:12:49.720Z,8.58
2023-03-24T10:18:19.894Z,9.09
2023-03-24T10:23:37.387Z,9.31
2023-03-24T10:29:01.951Z,9.67
2023-03-24T10:34:06.312Z,9.80
2023-03-24T10:39:20.055Z,9.76
2023-03-24T10:44:27.120Z,9.71
2023-03-24T10:49:31.397Z,9.94
2023-03-24T10:54:34.085Z,10.22
2023-03-24T10:59:45.997Z,10.22
2023-03-24T11:04:59.114Z,10.76
2023-03-24T11:10:08.341Z,11.15
2023-03-24T11:15:24.545Z,11.16
2023-03-24T11:20:32.349Z,10.82
2023-03-24T11:25:39.081Z,10.42
2023-03-24T11:31:12.024Z,10.59
2023-03-24T11:36:40.278Z,10.54
2023-03-24T11:42:07.579Z,10.55
2023-03-24T11:47:38.628Z,10.74
2023-03-24T11:52:50.800Z,10.46
2023-03-24T11:58:06.708Z,10.44
2023-03-24T12:03:28.178Z,10.43
2023-03-24T12:09:07.447Z,10.19
2023-03-24T12:14:12.382Z,10.97
2023-03-24T12:19:48.524Z,10.87
2023-03-24T12:25:04.388Z,11.21
2023-03-24T12:30:26.064Z,11.01
2023-03-24T12:35:43.338Z,10.92
2023-03-24T12:41:12.962Z,10.52
2023-03-24T12:46:34.152Z,10.26
2023-03-24T12:52:05.338Z,10.44
2023-03-24T12:57:14.663Z,10.41
2023-03-24T13:02:32.667Z,10.48
2023-03-24T13:07:39.359Z,10.62
2023-03-24T13:13:02.726Z,10.87
2023-03-24T13:18:38.723Z,10.60
2023-03-24T13:24:12.953Z,10.62
2023-03-24T13:29:48.410Z,10.42
2023-03-24T13:35:29.014Z,10.26
2023-03-24T13:40:35.111Z,10.04
2023-03-24T13:45:37.720Z,10.08
2023-03-24T13:50:53.485Z,10.09
2023-03-24T13:55:56.265Z,10.07
2023-03-24T14:01:11.336Z,10.05
2023-03-24T14:06:18.554Z,9.88
2023-03-24T14:11:41.532Z,9.87
2023-03-24T14:17:08.763Z,9.63
2023-03-24T14:22:34.605Z,9.55
2023-03-24T14:27:44.057Z,9.37
2023-03-24T14:32:49.995Z,9.32
2023-03-24T14:38:00.106Z,9.29
2023-03-24T14:43:13.689Z,9.27
2023-03-24T14:48:52.849Z,9.16
2023-03-24T14:53:59.540Z,9.16
2023-03-24T14:59:11.068Z,9.16
2023-03-24T15:04:13.972Z,8.98
2023-03-24T15:09:18.335Z,8.89
2023-03-24T15:14:25.280Z,8.85
2023-03-24T15:19:31.083Z,8.75
2023-03-24T15:24:38.433Z,8.69
2023-03-24T15:29:43.421Z,8.62
2023-03-24T15:34:53.402Z,8.64
2023-03-24T15:40:05.216Z,8.57
2023-03-24T15:50:40.773Z,8.56
2023-03-24T15:55:43.690Z,8.51
2023-03-24T16:00:46.437Z,8.50
2023-03-24T16:05:51.724Z,8.36
2023-03-24T16:11:07.896Z,8.11
2023-03-24T16:16:13.575Z,7.95
2023-03-24T16:21:22.691Z,7.75
2023-03-24T16:26:32.957Z,7.86
2023-03-24T16:31:35.760Z,7.86
2023-03-24T16:36:38.474Z,7.92
2023-03-24T16:41:41.059Z,7.98
2023-03-24T16:46:46.555Z,7.92
2023-03-24T16:51:50.576Z,8.09
2023-03-24T16:56:53.236Z,7.99
2023-03-24T17:02:05.737Z,7.77
2023-03-24T17:07:08.683Z,7.69
2023-03-24T17:12:11.320Z,7.47
2023-03-24T17:17:13.896Z,7.15
2023-03-24T17:22:19.691Z,6.85
2023-03-24T17:27:22.267Z,6.82
2023-03-24T17:32:31.920Z,6.63
2023-03-24T17:37:34.552Z,6.64
2023-03-24T17:42:38.934Z,6.44
2023-03-24T17:47:41.908Z,6.35
2023-03-24T17:52:47.913Z,6.20
2023-03-24T17:57:50.538Z,6.15
2023-03-24T18:02:53.309Z,6.11
2023-03-24T18:07:56.195Z,6.07
2023-03-24T18:12:58.800Z,5.86
2023-03-24T18:18:01.673Z,5.81
2023-03-24T18:23:04.554Z,5.72
2023-03-24T18:28:07.565Z,5.53
2023-03-24T18:33:10.863Z,5.44
2023-03-24T18:38:15.288Z,5.44
2023-03-24T18:43:17.927Z,5.36
2023-03-24T18:48:20.702Z,5.22
2023-03-24T18:53:23.623Z,5.24
2023-03-24T18:58:26.247Z,5.21
2023-03-24T19:03:29.705Z,5.19
2023-03-24T19:08:35.058Z,5.16
2023-03-24T19:13:38.057Z,5.15
2023-03-24T19:18:41.301Z,5.03
2023-03-24T19:23:44.842Z,5.07
2023-03-24T19:28:47.552Z,4.99
2023-03-24T19:33:52.336Z,4.91
2023-03-24T19:38:54.999Z,4.97
2023-03-24T19:43:57.851Z,4.90
2023-03-24T19:49:00.710Z,4.93
2023-03-24T19:54:03.377Z,4.84
2023-03-24T19:59:06.053Z,4.91
2023-03-24T20:04:09.382Z,4.83
2023-03-24T20:09:13.211Z,4.72
2023-03-24T20:14:17.084Z,4.84
2023-03-24T20:19:20.153Z,4.74
2023-03-24T20:24:23.091Z,4.76
2023-03-24T20:29:26.322Z,4.74
2023-03-24T20:34:29.828Z,4.86
2023-03-24T20:39:33.314Z,4.77
2023-03-24T20:44:36.024Z,4.77
2023-03-24T20:49:39.227Z,4.85
2023-03-24T20:54:41.863Z,4.83
2023-03-24T20:59:44.486Z,4.93
2023-03-24T21:04:47.151Z,4.97
2023-03-24T21:09:49.806Z,5.05
2023-03-24T21:14:52.505Z,5.05
2023-03-24T21:19:55.078Z,5.11
2023-03-24T21:24:59.389Z,5.17
2023-03-24T21:30:02.459Z,5.19
2023-03-24T21:35:07.413Z,5.23
2023-03-24T21:40:10.713Z,5.14
2023-03-24T21:45:17.181Z,5.19
2023-03-24T21:50:23.339Z,5.21
2023-03-24T21:55:27.111Z,5.23
2023-03-24T22:00:30.622Z,5.12
2023-03-24T22:05:34.001Z,5.21
2023-03-24T22:10:37.069Z,5.30
2023-03-24T22:15:39.647Z,5.31
2023-03-24T22:20:42.374Z,5.40
2023-03-24T22:25:44.977Z,5.36
2023-03-24T22:30:47.612Z,5.36
2023-03-24T22:35:54.891Z,5.36
2023-03-24T22:41:02.899Z,5.28
2023-03-24T22:46:05.918Z,5.11
2023-03-24T22:51:09.367Z,4.98
2023-03-24T22:56:12.313Z,4.99
2023-03-24T23:01:15.178Z,4.85
2023-03-24T23:06:17.801Z,4.75
2023-03-24T23:11:20.500Z,4.76
2023-03-24T23:16:23.144Z,4.76
2023-03-24T23:21:27.297Z,4.70
2023-03-24T23:26:30.325Z,4.67
2023-03-24T23:31:33.028Z,4.63
2023-03-24T23:36:35.758Z,4.59
2023-03-24T23:41:38.298Z,4.64
2023-03-24T23:46:41.057Z,4.68
2023-03-24T23:51:43.683Z,4.72
2023-03-24T23:56:47.125Z,4.80
